Kaliningrad, Russia
Current Conditions -  °F | °C
As of 8:30 AM on Tuesday 21 Oct 2014 (Local Time) from UMKK Reporting Station
Rain Showers Rain Showers  
Wind Chill: 54°   Ceiling: 800
Heat Index: 54°   Visibility: 4mi
Dew Point: 50°   Wind: 7mph
Humidity: 88%   Direction: 290°WNW
Pressure: 29.65"   Gusts: NA
Location:  54.71°N, 20.5°E
Report Text: UMKK 210630Z 29003MPS 150V320 7000 -SHRA BKN008 OVC020CB 12/10 Q1004 R24/29//60 NOSIG RMK QFE752/1003
Loading
Personal Weather Stations






























Interactive Weather Map
Tropical Storm Tracking
New forecast layout! Learn more

10-Day Weather Forecast

Advertisements
Track Severe Weather on mobile